sensor_id;sensor_type;location;lat;lon;timestamp;temperature;humidity
43647;DHT22;56152;49.996;18.980;2023-07-30T00:00:31;18.30;93.30
43647;DHT22;56152;49.996;18.980;2023-07-30T00:05:35;18.30;93.40
43647;DHT22;56152;49.996;18.980;2023-07-30T00:10:37;18.30;93.30
43647;DHT22;56152;49.996;18.980;2023-07-30T00:15:41;18.30;93.30
43647;DHT22;56152;49.996;18.980;2023-07-30T00:20:46;18.30;93.30
43647;DHT22;56152;49.996;18.980;2023-07-30T00:25:49;18.40;93.40
43647;DHT22;56152;49.996;18.980;2023-07-30T00:30:52;18.40;93.40
43647;DHT22;56152;49.996;18.980;2023-07-30T00:35:57;18.40;93.40
43647;DHT22;56152;49.996;18.980;2023-07-30T00:41:03;18.40;93.40
43647;DHT22;56152;49.996;18.980;2023-07-30T00:46:08;18.50;93.40
43647;DHT22;56152;49.996;18.980;2023-07-30T00:51:14;18.50;93.30
43647;DHT22;56152;49.996;18.980;2023-07-30T00:56:24;18.50;93.30
43647;DHT22;56152;49.996;18.980;2023-07-30T01:01:27;18.50;93.30
43647;DHT22;56152;49.996;18.980;2023-07-30T01:06:31;18.50;93.30
43647;DHT22;56152;49.996;18.980;2023-07-30T01:11:37;18.50;93.30
43647;DHT22;56152;49.996;18.980;2023-07-30T01:16:40;18.50;93.30
43647;DHT22;56152;49.996;18.980;2023-07-30T01:21:44;18.50;93.30
43647;DHT22;56152;49.996;18.980;2023-07-30T01:26:55;18.50;93.20
43647;DHT22;56152;49.996;18.980;2023-07-30T01:32:04;18.50;93.30
43647;DHT22;56152;49.996;18.980;2023-07-30T01:37:10;18.40;93.20
43647;DHT22;56152;49.996;18.980;2023-07-30T01:42:15;18.40;93.20
43647;DHT22;56152;49.996;18.980;2023-07-30T01:47:18;18.40;93.30
43647;DHT22;56152;49.996;18.980;2023-07-30T01:52:22;18.40;93.30
43647;DHT22;56152;49.996;18.980;2023-07-30T01:57:24;18.30;93.40
43647;DHT22;56152;49.996;18.980;2023-07-30T02:02:27;18.20;93.40
43647;DHT22;56152;49.996;18.980;2023-07-30T02:07:31;18.10;93.50
43647;DHT22;56152;49.996;18.980;2023-07-30T02:12:34;18.10;93.60
43647;DHT22;56152;49.996;18.980;2023-07-30T02:17:39;18.00;93.70
43647;DHT22;56152;49.996;18.980;2023-07-30T02:22:43;17.90;93.70
43647;DHT22;56152;49.996;18.980;2023-07-30T02:27:45;17.80;93.70
43647;DHT22;56152;49.996;18.980;2023-07-30T02:32:48;17.80;93.90
43647;DHT22;56152;49.996;18.980;2023-07-30T02:37:52;17.80;93.90
43647;DHT22;56152;49.996;18.980;2023-07-30T02:42:56;17.80;93.90
43647;DHT22;56152;49.996;18.980;2023-07-30T02:47:58;17.80;94.00
43647;DHT22;56152;49.996;18.980;2023-07-30T02:53:02;17.70;94.00
43647;DHT22;56152;49.996;18.980;2023-07-30T02:58:04;17.60;93.90
43647;DHT22;56152;49.996;18.980;2023-07-30T03:03:08;17.60;94.00
43647;DHT22;56152;49.996;18.980;2023-07-30T03:08:13;17.50;94.10
43647;DHT22;56152;49.996;18.980;2023-07-30T03:13:15;17.40;94.50
43647;DHT22;56152;49.996;18.980;2023-07-30T03:18:18;17.30;94.30
43647;DHT22;56152;49.996;18.980;2023-07-30T03:23:22;17.20;94.40
43647;DHT22;56152;49.996;18.980;2023-07-30T03:28:24;17.10;94.60
43647;DHT22;56152;49.996;18.980;2023-07-30T03:33:27;17.00;94.70
43647;DHT22;56152;49.996;18.980;2023-07-30T03:38:35;17.10;94.70
43647;DHT22;56152;49.996;18.980;2023-07-30T03:43:39;17.00;94.70
43647;DHT22;56152;49.996;18.980;2023-07-30T03:48:41;17.00;94.60
43647;DHT22;56152;49.996;18.980;2023-07-30T03:53:47;16.90;94.60
43647;DHT22;56152;49.996;18.980;2023-07-30T03:58:50;16.90;94.70
43647;DHT22;56152;49.996;18.980;2023-07-30T04:03:52;16.90;94.70
43647;DHT22;56152;49.996;18.980;2023-07-30T04:08:59;16.90;94.70
43647;DHT22;56152;49.996;18.980;2023-07-30T04:14:02;17.00;94.80
43647;DHT22;56152;49.996;18.980;2023-07-30T04:19:10;17.10;94.70
43647;DHT22;56152;49.996;18.980;2023-07-30T04:24:17;17.20;94.70
43647;DHT22;56152;49.996;18.980;2023-07-30T04:29:21;17.40;94.60
43647;DHT22;56152;49.996;18.980;2023-07-30T04:34:24;17.50;94.60
43647;DHT22;56152;49.996;18.980;2023-07-30T04:39:30;17.70;94.60
43647;DHT22;56152;49.996;18.980;2023-07-30T04:44:33;17.80;94.70
43647;DHT22;56152;49.996;18.980;2023-07-30T04:49:36;17.90;94.70
43647;DHT22;56152;49.996;18.980;2023-07-30T04:54:44;18.00;94.70
43647;DHT22;56152;49.996;18.980;2023-07-30T04:59:46;18.10;94.70
43647;DHT22;56152;49.996;18.980;2023-07-30T05:04:48;18.20;94.60
43647;DHT22;56152;49.996;18.980;2023-07-30T05:09:53;18.40;94.60
43647;DHT22;56152;49.996;18.980;2023-07-30T05:14:56;18.70;94.40
43647;DHT22;56152;49.996;18.980;2023-07-30T05:19:59;18.80;94.10
43647;DHT22;56152;49.996;18.980;2023-07-30T05:25:04;19.10;93.90
43647;DHT22;56152;49.996;18.980;2023-07-30T05:30:09;19.30;93.50
43647;DHT22;56152;49.996;18.980;2023-07-30T05:35:24;19.60;93.20
43647;DHT22;56152;49.996;18.980;2023-07-30T05:40:35;19.90;92.90
43647;DHT22;56152;49.996;18.980;2023-07-30T05:45:38;20.10;92.50
43647;DHT22;56152;49.996;18.980;2023-07-30T05:50:44;20.40;92.10
43647;DHT22;56152;49.996;18.980;2023-07-30T05:55:50;20.60;91.60
43647;DHT22;56152;49.996;18.980;2023-07-30T06:00:57;20.90;91.20
43647;DHT22;56152;49.996;18.980;2023-07-30T06:06:03;21.30;90.50
43647;DHT22;56152;49.996;18.980;2023-07-30T06:11:09;21.50;90.00
43647;DHT22;56152;49.996;18.980;2023-07-30T06:16:13;21.80;89.20
43647;DHT22;56152;49.996;18.980;2023-07-30T06:21:19;22.10;88.10
43647;DHT22;56152;49.996;18.980;2023-07-30T06:26:23;22.30;87.70
43647;DHT22;56152;49.996;18.980;2023-07-30T06:31:33;22.40;86.70
43647;DHT22;56152;49.996;18.980;2023-07-30T06:37:00;22.60;86.40
43647;DHT22;56152;49.996;18.980;2023-07-30T06:42:30;22.90;84.70
43647;DHT22;56152;49.996;18.980;2023-07-30T06:47:40;23.20;84.10
43647;DHT22;56152;49.996;18.980;2023-07-30T06:52:42;23.50;82.30
43647;DHT22;56152;49.996;18.980;2023-07-30T06:57:46;23.60;81.40
43647;DHT22;56152;49.996;18.980;2023-07-30T07:02:50;23.80;80.20
43647;DHT22;56152;49.996;18.980;2023-07-30T07:07:52;24.00;79.20
43647;DHT22;56152;49.996;18.980;2023-07-30T07:12:59;24.10;78.80
43647;DHT22;56152;49.996;18.980;2023-07-30T07:18:01;24.20;77.90
43647;DHT22;56152;49.996;18.980;2023-07-30T07:23:04;24.10;77.40
43647;DHT22;56152;49.996;18.980;2023-07-30T07:28:09;24.00;77.30
43647;DHT22;56152;49.996;18.980;2023-07-30T07:33:47;24.10;76.10
43647;DHT22;56152;49.996;18.980;2023-07-30T07:38:54;24.20;76.70
43647;DHT22;56152;49.996;18.980;2023-07-30T07:44:20;24.20;76.20
43647;DHT22;56152;49.996;18.980;2023-07-30T07:49:23;24.20;76.60
43647;DHT22;56152;49.996;18.980;2023-07-30T07:54:26;24.30;75.80
43647;DHT22;56152;49.996;18.980;2023-07-30T07:59:36;24.60;75.10
43647;DHT22;56152;49.996;18.980;2023-07-30T08:04:43;24.70;73.70
43647;DHT22;56152;49.996;18.980;2023-07-30T08:09:59;24.70;73.50
43647;DHT22;56152;49.996;18.980;2023-07-30T08:15:04;24.60;73.00
43647;DHT22;56152;49.996;18.980;2023-07-30T08:20:07;24.70;72.80
43647;DHT22;56152;49.996;18.980;2023-07-30T08:25:10;24.70;72.90
43647;DHT22;56152;49.996;18.980;2023-07-30T08:30:14;24.70;73.10
43647;DHT22;56152;49.996;18.980;2023-07-30T08:35:17;24.70;71.70
43647;DHT22;56152;49.996;18.980;2023-07-30T08:40:21;24.50;71.20
43647;DHT22;56152;49.996;18.980;2023-07-30T08:45:27;24.50;72.10
43647;DHT22;56152;49.996;18.980;2023-07-30T08:50:29;24.60;71.50
43647;DHT22;56152;49.996;18.980;2023-07-30T08:55:34;24.50;71.70
43647;DHT22;56152;49.996;18.980;2023-07-30T09:00:38;24.50;71.60
43647;DHT22;56152;49.996;18.980;2023-07-30T09:05:42;24.50;71.60
43647;DHT22;56152;49.996;18.980;2023-07-30T09:10:44;24.60;71.50
43647;DHT22;56152;49.996;18.980;2023-07-30T09:15:52;24.50;71.70
43647;DHT22;56152;49.996;18.980;2023-07-30T09:20:53;24.50;71.60
43647;DHT22;56152;49.996;18.980;2023-07-30T09:25:57;24.50;71.70
43647;DHT22;56152;49.996;18.980;2023-07-30T09:31:04;24.50;71.10
43647;DHT22;56152;49.996;18.980;2023-07-30T09:36:10;24.50;71.00
43647;DHT22;56152;49.996;18.980;2023-07-30T09:41:12;24.30;70.30
43647;DHT22;56152;49.996;18.980;2023-07-30T09:46:16;24.30;70.70
43647;DHT22;56152;49.996;18.980;2023-07-30T09:51:20;24.40;70.80
43647;DHT22;56152;49.996;18.980;2023-07-30T09:56:24;24.50;70.60
43647;DHT22;56152;49.996;18.980;2023-07-30T10:01:29;24.40;71.00
43647;DHT22;56152;49.996;18.980;2023-07-30T10:06:33;24.50;70.90
43647;DHT22;56152;49.996;18.980;2023-07-30T10:11:39;24.40;71.10
43647;DHT22;56152;49.996;18.980;2023-07-30T10:16:52;24.30;70.90
43647;DHT22;56152;49.996;18.980;2023-07-30T10:22:19;24.20;71.30
43647;DHT22;56152;49.996;18.980;2023-07-30T10:27:24;24.30;70.80
43647;DHT22;56152;49.996;18.980;2023-07-30T10:32:38;24.30;70.80
43647;DHT22;56152;49.996;18.980;2023-07-30T10:37:45;24.30;70.60
43647;DHT22;56152;49.996;18.980;2023-07-30T10:42:48;24.20;70.70
43647;DHT22;56152;49.996;18.980;2023-07-30T10:48:04;24.30;70.80
43647;DHT22;56152;49.996;18.980;2023-07-30T10:53:08;24.30;71.20
43647;DHT22;56152;49.996;18.980;2023-07-30T10:58:10;24.20;71.10
43647;DHT22;56152;49.996;18.980;2023-07-30T11:03:14;24.30;71.20
43647;DHT22;56152;49.996;18.980;2023-07-30T11:08:16;24.30;70.40
43647;DHT22;56152;49.996;18.980;2023-07-30T11:13:18;24.30;70.30
43647;DHT22;56152;49.996;18.980;2023-07-30T11:18:22;24.30;70.20
43647;DHT22;56152;49.996;18.980;2023-07-30T11:23:28;24.30;70.20
43647;DHT22;56152;49.996;18.980;2023-07-30T11:28:31;24.30;70.70
43647;DHT22;56152;49.996;18.980;2023-07-30T11:33:36;24.30;70.60
43647;DHT22;56152;49.996;18.980;2023-07-30T11:38:39;24.20;70.30
43647;DHT22;56152;49.996;18.980;2023-07-30T11:43:43;24.00;70.40
43647;DHT22;56152;49.996;18.980;2023-07-30T11:48:49;24.00;70.80
43647;DHT22;56152;49.996;18.980;2023-07-30T11:53:54;23.90;71.20
43647;DHT22;56152;49.996;18.980;2023-07-30T11:58:57;23.80;71.70
43647;DHT22;56152;49.996;18.980;2023-07-30T12:04:05;23.70;72.60
43647;DHT22;56152;49.996;18.980;2023-07-30T12:09:14;23.60;72.30
43647;DHT22;56152;49.996;18.980;2023-07-30T12:14:16;23.50;72.60
43647;DHT22;56152;49.996;18.980;2023-07-30T12:19:27;23.50;72.90
43647;DHT22;56152;49.996;18.980;2023-07-30T12:24:29;23.50;73.10
43647;DHT22;56152;49.996;18.980;2023-07-30T12:29:34;23.40;72.40
43647;DHT22;56152;49.996;18.980;2023-07-30T12:34:39;23.40;72.50
43647;DHT22;56152;49.996;18.980;2023-07-30T12:39:41;23.40;72.80
43647;DHT22;56152;49.996;18.980;2023-07-30T12:44:43;23.40;72.60
43647;DHT22;56152;49.996;18.980;2023-07-30T12:49:48;23.50;72.70
43647;DHT22;56152;49.996;18.980;2023-07-30T12:54:50;23.50;72.50
43647;DHT22;56152;49.996;18.980;2023-07-30T12:59:54;23.50;72.30
43647;DHT22;56152;49.996;18.980;2023-07-30T13:04:59;23.50;72.50
43647;DHT22;56152;49.996;18.980;2023-07-30T13:10:06;23.50;72.20
43647;DHT22;56152;49.996;18.980;2023-07-30T13:15:09;23.50;72.30
43647;DHT22;56152;49.996;18.980;2023-07-30T13:20:15;23.50;72.00
43647;DHT22;56152;49.996;18.980;2023-07-30T13:25:17;23.70;72.50
43647;DHT22;56152;49.996;18.980;2023-07-30T13:30:20;23.90;72.60
43647;DHT22;56152;49.996;18.980;2023-07-30T13:35:24;24.10;71.70
43647;DHT22;56152;49.996;18.980;2023-07-30T13:40:27;24.30;71.90
43647;DHT22;56152;49.996;18.980;2023-07-30T13:45:33;24.50;71.30
43647;DHT22;56152;49.996;18.980;2023-07-30T13:50:37;24.50;70.80
43647;DHT22;56152;49.996;18.980;2023-07-30T13:55:39;24.80;70.20
43647;DHT22;56152;49.996;18.980;2023-07-30T14:00:43;25.30;68.70
43647;DHT22;56152;49.996;18.980;2023-07-30T14:05:47;25.40;67.80
43647;DHT22;56152;49.996;18.980;2023-07-30T14:10:49;25.40;66.80
43647;DHT22;56152;49.996;18.980;2023-07-30T14:15:52;25.30;67.60
43647;DHT22;56152;49.996;18.980;2023-07-30T14:20:56;24.90;68.00
43647;DHT22;56152;49.996;18.980;2023-07-30T14:26:12;24.60;68.70
43647;DHT22;56152;49.996;18.980;2023-07-30T14:31:14;24.30;69.00
43647;DHT22;56152;49.996;18.980;2023-07-30T14:36:19;24.00;69.40
43647;DHT22;56152;49.996;18.980;2023-07-30T14:41:21;23.70;69.70
43647;DHT22;56152;49.996;18.980;2023-07-30T14:46:38;23.60;70.20
43647;DHT22;56152;49.996;18.980;2023-07-30T14:51:46;23.60;70.50
43647;DHT22;56152;49.996;18.980;2023-07-30T14:56:51;23.70;70.40
43647;DHT22;56152;49.996;18.980;2023-07-30T15:01:56;23.90;70.40
43647;DHT22;56152;49.996;18.980;2023-07-30T15:07:00;24.00;70.50
43647;DHT22;56152;49.996;18.980;2023-07-30T15:12:05;24.20;70.40
43647;DHT22;56152;49.996;18.980;2023-07-30T15:17:11;24.50;69.10
43647;DHT22;56152;49.996;18.980;2023-07-30T15:22:20;24.60;68.90
43647;DHT22;56152;49.996;18.980;2023-07-30T15:27:36;24.70;69.10
43647;DHT22;56152;49.996;18.980;2023-07-30T15:32:42;24.60;68.70
43647;DHT22;56152;49.996;18.980;2023-07-30T15:37:59;24.50;69.40
43647;DHT22;56152;49.996;18.980;2023-07-30T15:43:02;24.50;70.10
43647;DHT22;56152;49.996;18.980;2023-07-30T15:48:05;24.30;69.60
43647;DHT22;56152;49.996;18.980;2023-07-30T15:53:23;24.20;70.00
43647;DHT22;56152;49.996;18.980;2023-07-30T15:58:26;24.10;70.40
43647;DHT22;56152;49.996;18.980;2023-07-30T16:03:40;24.00;71.10
43647;DHT22;56152;49.996;18.980;2023-07-30T16:08:48;24.00;71.60
43647;DHT22;56152;49.996;18.980;2023-07-30T16:13:54;24.00;72.20
43647;DHT22;56152;49.996;18.980;2023-07-30T16:19:14;23.90;72.30
43647;DHT22;56152;49.996;18.980;2023-07-30T16:24:33;23.60;73.10
43647;DHT22;56152;49.996;18.980;2023-07-30T16:29:50;23.50;74.10
43647;DHT22;56152;49.996;18.980;2023-07-30T16:35:17;23.30;73.90
43647;DHT22;56152;49.996;18.980;2023-07-30T16:40:30;23.00;74.30
43647;DHT22;56152;49.996;18.980;2023-07-30T16:45:46;22.80;74.40
43647;DHT22;56152;49.996;18.980;2023-07-30T16:51:02;22.50;74.50
43647;DHT22;56152;49.996;18.980;2023-07-30T17:02:16;22.10;74.90
43647;DHT22;56152;49.996;18.980;2023-07-30T17:07:57;22.00;75.10
43647;DHT22;56152;49.996;18.980;2023-07-30T17:13:08;21.90;75.20
43647;DHT22;56152;49.996;18.980;2023-07-30T17:24:15;21.80;75.80
43647;DHT22;56152;49.996;18.980;2023-07-30T17:41:58;21.80;77.20
43647;DHT22;56152;49.996;18.980;2023-07-30T17:47:02;21.90;76.80
43647;DHT22;56152;49.996;18.980;2023-07-30T17:52:06;21.90;77.00
43647;DHT22;56152;49.996;18.980;2023-07-30T18:20:15;20.90;78.50
43647;DHT22;56152;49.996;18.980;2023-07-30T18:25:18;20.80;79.30
43647;DHT22;56152;49.996;18.980;2023-07-30T18:30:21;20.60;79.90
43647;DHT22;56152;49.996;18.980;2023-07-30T18:35:28;20.40;81.10
43647;DHT22;56152;49.996;18.980;2023-07-30T18:40:34;20.20;82.20
43647;DHT22;56152;49.996;18.980;2023-07-30T18:45:50;20.00;82.80
43647;DHT22;56152;49.996;18.980;2023-07-30T18:51:03;19.80;83.20
43647;DHT22;56152;49.996;18.980;2023-07-30T18:56:19;19.70;83.50
43647;DHT22;56152;49.996;18.980;2023-07-30T19:01:35;19.50;84.40
43647;DHT22;56152;49.996;18.980;2023-07-30T19:06:47;19.40;84.50
43647;DHT22;56152;49.996;18.980;2023-07-30T19:11:56;19.30;84.90
43647;DHT22;56152;49.996;18.980;2023-07-30T19:16:58;19.20;85.20
43647;DHT22;56152;49.996;18.980;2023-07-30T19:22:03;19.20;85.50
43647;DHT22;56152;49.996;18.980;2023-07-30T19:27:09;19.10;85.90
43647;DHT22;56152;49.996;18.980;2023-07-30T19:32:11;19.00;86.00
43647;DHT22;56152;49.996;18.980;2023-07-30T19:37:18;18.90;86.00
43647;DHT22;56152;49.996;18.980;2023-07-30T19:42:21;18.80;86.00
43647;DHT22;56152;49.996;18.980;2023-07-30T19:47:23;18.80;86.40
43647;DHT22;56152;49.996;18.980;2023-07-30T19:52:29;18.70;86.30
43647;DHT22;56152;49.996;18.980;2023-07-30T19:57:31;18.70;86.60
43647;DHT22;56152;49.996;18.980;2023-07-30T20:02:34;18.70;86.90
43647;DHT22;56152;49.996;18.980;2023-07-30T20:07:58;18.50;87.00
43647;DHT22;56152;49.996;18.980;2023-07-30T20:13:00;18.50;87.10
43647;DHT22;56152;49.996;18.980;2023-07-30T20:18:05;18.40;87.60
43647;DHT22;56152;49.996;18.980;2023-07-30T20:23:08;18.40;87.70
43647;DHT22;56152;49.996;18.980;2023-07-30T20:28:11;18.30;87.80
43647;DHT22;56152;49.996;18.980;2023-07-30T20:33:12;18.20;87.80
43647;DHT22;56152;49.996;18.980;2023-07-30T20:38:18;18.10;87.80
43647;DHT22;56152;49.996;18.980;2023-07-30T20:43:22;18.10;88.10
43647;DHT22;56152;49.996;18.980;2023-07-30T20:48:24;18.00;88.10
43647;DHT22;56152;49.996;18.980;2023-07-30T20:53:28;18.00;88.10
43647;DHT22;56152;49.996;18.980;2023-07-30T20:58:30;18.00;88.30
43647;DHT22;56152;49.996;18.980;2023-07-30T21:03:32;18.00;88.50
43647;DHT22;56152;49.996;18.980;2023-07-30T21:08:38;18.00;88.60
43647;DHT22;56152;49.996;18.980;2023-07-30T21:13:40;18.00;88.60
43647;DHT22;56152;49.996;18.980;2023-07-30T21:18:42;18.10;88.50
43647;DHT22;56152;49.996;18.980;2023-07-30T21:23:46;18.10;88.50
43647;DHT22;56152;49.996;18.980;2023-07-30T21:28:49;18.10;88.60
43647;DHT22;56152;49.996;18.980;2023-07-30T21:33:52;18.10;88.60
43647;DHT22;56152;49.996;18.980;2023-07-30T21:38:55;18.10;88.60
43647;DHT22;56152;49.996;18.980;2023-07-30T21:43:57;18.10;88.80
43647;DHT22;56152;49.996;18.980;2023-07-30T21:48:59;18.00;88.80
43647;DHT22;56152;49.996;18.980;2023-07-30T21:54:03;18.00;88.90
43647;DHT22;56152;49.996;18.980;2023-07-30T21:59:07;17.90;89.10
43647;DHT22;56152;49.996;18.980;2023-07-30T22:04:09;17.90;89.30
43647;DHT22;56152;49.996;18.980;2023-07-30T22:09:16;17.90;89.60
43647;DHT22;56152;49.996;18.980;2023-07-30T22:14:18;17.80;89.70
43647;DHT22;56152;49.996;18.980;2023-07-30T22:19:20;17.90;89.90
43647;DHT22;56152;49.996;18.980;2023-07-30T22:24:23;17.80;90.00
43647;DHT22;56152;49.996;18.980;2023-07-30T22:29:27;17.90;90.10
43647;DHT22;56152;49.996;18.980;2023-07-30T22:34:28;17.90;90.20
43647;DHT22;56152;49.996;18.980;2023-07-30T22:39:32;17.90;90.20
43647;DHT22;56152;49.996;18.980;2023-07-30T22:44:34;18.00;90.30
43647;DHT22;56152;49.996;18.980;2023-07-30T22:49:38;18.00;90.30
43647;DHT22;56152;49.996;18.980;2023-07-30T22:54:42;18.00;90.30
43647;DHT22;56152;49.996;18.980;2023-07-30T22:59:44;18.00;90.60
43647;DHT22;56152;49.996;18.980;2023-07-30T23:04:47;17.90;90.40
43647;DHT22;56152;49.996;18.980;2023-07-30T23:09:50;17.80;90.40
43647;DHT22;56152;49.996;18.980;2023-07-30T23:14:53;17.90;90.60
43647;DHT22;56152;49.996;18.980;2023-07-30T23:19:55;17.70;90.70
43647;DHT22;56152;49.996;18.980;2023-07-30T23:24:58;17.60;91.10
43647;DHT22;56152;49.996;18.980;2023-07-30T23:30:00;17.50;91.00
43647;DHT22;56152;49.996;18.980;2023-07-30T23:35:02;17.50;91.00
43647;DHT22;56152;49.996;18.980;2023-07-30T23:40:08;17.40;91.20
43647;DHT22;56152;49.996;18.980;2023-07-30T23:45:10;17.40;91.40
43647;DHT22;56152;49.996;18.980;2023-07-30T23:50:12;17.40;91.40
43647;DHT22;56152;49.996;18.980;2023-07-30T23:55:16;17.40;91.50
